ADDS METAR Data INFO
IDs: Format: Raw Decoded Include TAF

Data at: 1114 UTC 17 Jul 2018

KMKJ 171055Z AUTO 25007KT 3SM BR OVC004 21/21 A3009 RMK AO2 P0001 T02130205
KMKJ 171035Z AUTO 25007KT 2 1/2SM BR BKN004 OVC010 21/20 A3009 RMK AO2 P0001 T02110202
KMKJ 171015Z AUTO 26009KT 3SM BR SCT004 BKN010 OVC036 21/20 A3009 RMK AO2 P0001 T02100201
KMKJ 170955Z AUTO 25006KT 5SM BR SCT004 SCT010 BKN014 21/20 A3009 RMK AO2 T02100200
KMKJ 170935Z AUTO 25006KT 5SM BR SCT003 OVC014 21/20 A3009 RMK AO2 LTG DSNT E T02100200
KMKJ 170915Z AUTO 26004KT 4SM BR SCT003 OVC016 21/20 A3009 RMK AO2 T02100201
KMKJ 170855Z AUTO 23005KT 4SM BR SCT003 BKN018 OVC023 21/20 A3008 RMK AO2 T02100200
KMKJ 170835Z AUTO 25003KT 4SM -RA SCT002 BKN023 OVC060 21/20 A3007 RMK AO2 T02100200
KMKJ 170815Z AUTO 26005KT 4SM RA BKN002 BKN022 OVC080 21/20 A3008 RMK AO2 T02080200
KMKJ 170755Z AUTO 24005KT 4SM BR SCT002 SCT025 SCT060 21/20 A3008 RMK AO2 T02070198
KMKJ 170735Z AUTO 25006KT 5SM BR SCT022 SCT028 21/20 A3008 RMK AO2 T02070198
KMKJ 170715Z AUTO 25005KT 5SM BR SCT004 BKN022 21/20 A3009 RMK AO2 T02060197
KMKJ 170655Z AUTO 29004KT 5SM BR BKN004 BKN018 21/20 A3009 RMK AO2 T02070198
KMKJ 170635Z AUTO 25004KT 7SM SCT008 SCT019 SCT046 21/20 A3009 RMK AO2 T02080199
KMKJ 170615Z AUTO 24004KT 10SM SCT008 SCT022 21/20 A3009 RMK AO2 T02070198
KMKJ 170555Z AUTO 27006KT 7SM CLR 21/20 A3010 RMK AO2 60001 T02100200 10248 20208
KMKJ 170535Z AUTO 28004KT 7SM CLR 21/20 A3010 RMK AO2 T02080200
KMKJ 170515Z AUTO 24003KT 7SM SCT009 SCT090 BKN120 21/20 A3011 RMK AO2 T02100200
KMKJ 170455Z AUTO 26004KT 7SM BKN009 OVC090 21/20 A3011 RMK AO2 T02100201 402970201
KMKJ 170435Z AUTO 29003KT 7SM SCT009 SCT090 21/20 A3012 RMK AO2 T02080200
KMKJ 170415Z AUTO 26004KT 7SM SCT023 SCT031 SCT090 21/20 A3011 RMK AO2 T02100200
KMKJ 170355Z AUTO 00000KT 7SM SCT016 BKN023 BKN031 21/20 A3011 RMK AO2 T02120203
KMKJ 170335Z AUTO 00000KT 7SM SCT003 SCT018 BKN024 21/20 A3012 RMK AO2 T02110202
KMKJ 170315Z AUTO 00000KT 10SM SCT003 SCT022 SCT031 21/21 A3012 RMK AO2 T02140205
KMKJ 170255Z AUTO 00000KT 10SM SCT120 21/21 A3012 RMK AO2 60001 T02130205
KMKJ 170235Z AUTO 00000KT 10SM BKN120 22/21 A3011 RMK AO2 T02150206
KMKJ 170215Z AUTO 00000KT 7SM SCT085 SCT110 22/21 A3012 RMK AO2 T02160207
KMKJ 170155Z AUTO 00000KT 10SM -RA SCT085 OVC110 22/21 A3011 RMK AO2 P0001 T02180210
KMKJ 170135Z AUTO 00000KT 10SM -RA BKN110 22/21 A3011 RMK AO2 LTG DSNT NW P0001 T02210212
KMKJ 170115Z AUTO 28003KT 10SM -RA BKN120 22/21 A3010 RMK AO2 LTG DSNT NE T02240214
KMKJ 170055Z AUTO 30006KT 10SM -RA SCT035 SCT048 BKN120 23/20 A3010 RMK AO2 T02340203
KMKJ 170035Z AUTO 30004KT 10SM SCT046 BKN110 24/19 A3009 RMK AO2 T02410193
KMKJ 170015Z AUTO 32004KT 10SM CLR 25/19 A3009 RMK AO2 T02460192
KMKJ 162355Z AUTO 28004KT 10SM CLR 25/19 A3008 RMK AO2 T02460190 10297 20246
KMKJ 162335Z AUTO 21003G15KT 10SM SCT047 25/20 A3008 RMK AO2 LTG DSNT W THRU NE T02510198
KMKJ 162315Z AUTO 17003KT 10SM CLR 26/20 A3008 RMK AO2 LTG DSNT NE T02640197
KMKJ 162255Z AUTO 18005KT 10SM SCT090 27/20 A3007 RMK AO2 LTG DSNT W AND NW T02720196
KMKJ 162235Z AUTO 00000KT 10SM SCT090 SCT120 28/20 A3007 RMK AO2 LTG DSNT W T02750200
KMKJ 162215Z AUTO 18003KT 10SM SCT055 28/20 A3008 RMK AO2 T02800203
KMKJ 162155Z AUTO 17003KT 10SM SCT055 27/19 A3008 RMK AO2 LTG DSNT E AND W T02700194
KMKJ 162135Z AUTO 19004KT 10SM CLR 28/20 A3009 RMK AO2 LTG DSNT N E AND W T02830198
KMKJ 162115Z AUTO 19004KT 10SM CLR 29/20 A3009 RMK AO2 LTG DSNT W AND NW T02860198
KMKJ 162055Z AUTO 00000KT 10SM CLR 29/20 A3009 RMK AO2 LTG DSNT E AND W T02850198
KMKJ 162035Z AUTO 23003KT 10SM SCT100 27/20 A3009 RMK AO2 LTG DSNT SW THRU NW T02730202
KMKJ 162015Z AUTO 17004KT 10SM SCT048 OVC095 27/20 A3009 RMK AO2 LTG DSNT E AND W T02680197
KMKJ 161955Z AUTO 17006KT 10SM SCT042 OVC048 25/18 A3010 RMK AO2 LTG DSNT NE T02530180
KMKJ 161935Z AUTO 17004KT 10SM SCT038 BKN048 BKN060 28/20 A3010 RMK AO2 LTG DSNT W T02810198
KMKJ 161915Z AUTO 20004KT 10SM SCT039 SCT070 29/20 A3011 RMK AO2 LTG DSNT E AND W T02870197
KMKJ 161855Z AUTO 24004KT 10SM SCT041 SCT050 SCT060 30/20 A3011 RMK AO2 LTG DSNT W T02960204
KMKJ 161835Z AUTO 26007KT 10SM SCT070 28/20 A3012 RMK AO2 LTG DSNT NE T02840199
KMKJ 161815Z AUTO 23006KT 10SM CLR 29/20 A3012 RMK AO2 LTG DSNT NE AND E T02910203
KMKJ 161755Z AUTO 26006KT 10SM CLR 29/21 A3013 RMK AO2 LTG DSNT NE AND W 60001 T02860207 10286 20205
KMKJ 161735Z AUTO 25008KT 10SM CLR 28/21 A3014 RMK AO2 LTG DSNT NE AND W T02810206
KMKJ 161715Z AUTO 22010KT 10SM SCT120 28/20 A3015 RMK AO2 LTG DSNT E T02790202
KMKJ 161655Z AUTO 25007KT 10SM SCT120 28/21 A3016 RMK AO2 LTG DSNT E T02800208
KMKJ 161635Z AUTO 23007KT 10SM CLR 28/21 A3017 RMK AO2 T02750207
KMKJ 161615Z AUTO 23006KT 10SM CLR 27/21 A3017 RMK AO2 T02730214
KMKJ 161555Z AUTO 25006KT 10SM CLR 27/20 A3017 RMK AO2 T02700204
KMKJ 161535Z AUTO 23005KT 10SM SCT085 27/21 A3018 RMK AO2 T02700205
KMKJ 161515Z AUTO 22003KT 10SM CLR 26/21 A3018 RMK AO2 LTG DSNT E T02610206
KMKJ 161455Z AUTO 28004KT 10SM SCT120 26/21 A3017 RMK AO2 60001 T02610209
KMKJ 161435Z AUTO 00000KT 10SM SCT120 26/21 A3018 RMK AO2 T02550213
KMKJ 161415Z AUTO 00000KT 10SM SCT008 SCT120 25/21 A3018 RMK AO2 T02450210
KMKJ 161355Z AUTO 00000KT 10SM SCT006 24/21 A3018 RMK AO2 P0001 T02410209
KMKJ 161335Z AUTO 00000KT 10SM SCT006 23/21 A3018 RMK AO2 P0001 T02260210
KMKJ 161315Z AUTO 00000KT 10SM OVC006 22/21 A3018 RMK AO2 T02210212
KMKJ 161255Z AUTO 00000KT 7SM OVC004 22/21 A3017 RMK AO2 T02150206
KMKJ 161235Z AUTO 00000KT 7SM BKN004 21/20 A3017 RMK AO2 T02100200
KMKJ 161215Z AUTO 00000KT 7SM BKN004 21/20 A3017 RMK AO2 T02060197
KMKJ 161155Z AUTO 00000KT 3SM BR BKN002 21/20 A3016 RMK AO2 70018 T02060197 10206 20201
KMKJ 161135Z AUTO 00000KT 2 1/2SM BR SCT002 21/20 A3016 RMK AO2 T02050195
KMKJ 161115Z AUTO 00000KT 4SM BR SCT002 20/19 A3016 RMK AO2 T02020193
KMKJ 161055Z AUTO 00000KT 4SM BR SCT002 20/19 A3016 RMK AO2 T02010192
KMKJ 161035Z AUTO 26006KT 2 1/2SM BR SCT002 SCT120 20/19 A3015 RMK AO2 T02020193
KMKJ 161015Z AUTO 27004KT 4SM BR BKN120 20/19 A3015 RMK AO2 T02020193
KMKJ 160955Z AUTO 27003KT 4SM BR SCT001 SCT120 20/19 A3015 RMK AO2 T02020193
KMKJ 160935Z AUTO 26005KT 3SM BR BKN001 BKN120 20/19 A3016 RMK AO2 T02020193
KMKJ 160915Z AUTO 27004KT 4SM BR BKN001 BKN120 20/19 A3015 RMK AO2 T02020193
KMKJ 160855Z AUTO 25005KT 3SM BR BKN001 BKN110 20/19 A3015 RMK AO2 T02020193
KMKJ 160835Z AUTO 25004KT 2 1/2SM BR BKN001 BKN110 20/19 A3015 RMK AO2 T02020193
KMKJ 160815Z AUTO 25004KT 5SM BR SCT120 20/19 A3015 RMK AO2 T02020193
KMKJ 160755Z AUTO 29003KT 3SM DZ BKN003 BKN023 21/20 A3016 RMK AO2 T02050195
KMKJ 160735Z AUTO 00000KT 4SM RA OVC003 20/20 A3016 RMK AO2 T02040195
KMKJ 160715Z AUTO 00000KT 5SM BR BKN003 20/20 A3016 RMK AO2 T02040195
KMKJ 160655Z AUTO 00000KT 5SM BR BKN003 OVC110 20/20 A3017 RMK AO2 T02030195
KMKJ 160635Z AUTO 00000KT 2 1/2SM -DZ BKN003 BKN110 21/20 A3018 RMK AO2 LTG DSNT S AND W T02050195
KMKJ 160615Z AUTO 00000KT 3SM -RA BKN003 OVC110 21/20 A3019 RMK AO2 T02050195
KMKJ 160555Z AUTO 00000KT 5SM BR SCT003 OVC110 21/20 A3019 RMK AO2 60001 T02050195 10211 20203
KMKJ 160535Z AUTO 00000KT 4SM BR BKN003 OVC120 20/20 A3018 RMK AO2 LTG DSNT SE T02030195
KMKJ 160515Z AUTO 26003KT 3SM BR SCT001 OVC120 20/20 A3018 RMK AO2 LTG DSNT E THRU S T02040195
KMKJ 160455Z AUTO 00000KT 3SM BR BKN001 OVC100 21/20 A3017 RMK AO2 T02050195 403060178
KMKJ 160435Z AUTO 00000KT 4SM BR SCT001 OVC100 21/20 A3017 RMK AO2 LTG DSNT SW T02060197
KMKJ 160415Z AUTO 00000KT 2 1/2SM VCTS BR SCT001 SCT080 OVC100 21/20 A3018 RMK AO2 LTG DSNT W T02060197
KMKJ 160355Z AUTO 23003KT 7SM SCT065 SCT080 BKN110 21/20 A3018 RMK AO2 LTG DSNT SW AND W T02070198
KMKJ 160335Z AUTO 00000KT 5SM BR SCT065 BKN120 21/20 A3018 RMK AO2 LTG DSNT W T02080200
KMKJ 160315Z AUTO 00000KT 5SM BR SCT003 SCT070 BKN120 21/20 A3018 RMK AO2 T02090200
KMKJ 160255Z AUTO 00000KT 4SM BR SCT003 OVC070 21/20 A3018 RMK AO2 LTG DSNT W 60001 T02080200
KMKJ 160235Z AUTO 00000KT 5SM BR SCT003 BKN070 OVC100 21/20 A3018 RMK AO2 T02100200
KMKJ 160215Z AUTO 00000KT 4SM BR OVC100 21/20 A3017 RMK AO2 LTG DSNT W T02100200
KMKJ 160155Z AUTO 00000KT 5SM BR SCT003 OVC110 21/20 A3017 RMK AO2 LTG DSNT W AND NW T02100201
KMKJ 160135Z AUTO 00000KT 5SM BR OVC110 21/20 A3016 RMK AO2 LTG DSNT NW T02100200
KMKJ 160115Z AUTO 00000KT 7SM SCT100 OVC110 21/20 A3016 RMK AO2 T02100200
KMKJ 160055Z AUTO 00000KT 3SM BR BKN100 21/20 A3015 RMK AO2 P0001 T02080200
KMKJ 160035Z AUTO 00000KT 5SM BR SCT085 SCT110 21/20 A3016 RMK AO2 P0001 T02100200
KMKJ 160015Z AUTO 00000KT 4SM -RA SCT085 BKN110 21/20 A3016 RMK AO2 P0001 T02100201
KMKJ 152355Z AUTO 00000KT 7SM RA SCT024 SCT050 OVC110 21/20 A3016 RMK AO2 LTG DSNT NW P0015 60017 T02110202 10306 20211
KMKJ 152335Z AUTO 28004KT 4SM VCTSRA SCT048 SCT070 OVC100 22/21 A3017 RMK AO2 LTG DSNT W THRU E P0014 T02150205
KMKJ 152315Z AUTO 35003KT 2SM VCTSRA SCT016 BKN055 OVC090 22/21 A3017 RMK AO2 VIS 1V5 LTG DSNT ALQS P0011 T02150205